Time;durP1;ratioP1;P1;durP2;ratioP2;P2;SDS_P1;SDS_P2;PMS_P1;PMS_P2;Temp;Humidity;BMP_temperature;BMP_pressure;BME280_temperature;BME280_humidity;BME280_pressure;Samples;Min_cycle;Max_cycle;Signal;HPM_P1;HPM_P2
2023/08/07 00:00:44;;;;;;;7.30;2.63;;;;;;;12.88;100.00;100999.25;5011046;28;20045;-61
2023/08/07 00:03:18;;;;;;;8.13;1.95;;;;;;;12.85;100.00;100994.19;5013096;28;20077;-61
2023/08/07 00:05:47;;;;;;;8.85;1.83;;;;;;;12.90;100.00;101001.78;5012825;28;20057;-61
2023/08/07 00:08:15;;;;;;;7.72;2.08;;;;;;;12.89;100.00;100992.19;5012898;28;20073;-61
2023/08/07 00:10:43;;;;;;;9.25;2.33;;;;;;;12.85;100.00;100995.03;5013721;28;20050;-55
2023/08/07 00:13:11;;;;;;;7.53;2.03;;;;;;;12.88;100.00;100996.63;5013688;28;20438;-54
2023/08/07 00:15:41;;;;;;;7.03;2.08;;;;;;;12.92;100.00;100998.06;5012306;28;20053;-55
2023/08/07 00:18:10;;;;;;;7.47;1.75;;;;;;;12.88;100.00;100996.63;5010986;28;20054;-55
2023/08/07 00:20:40;;;;;;;8.30;2.25;;;;;;;12.83;100.00;100990.84;5013936;28;20480;-54
2023/08/07 00:23:08;;;;;;;6.63;2.05;;;;;;;12.88;100.00;100988.69;5013736;28;20065;-56
2023/08/07 00:25:37;;;;;;;6.00;1.40;;;;;;;12.77;100.00;100986.84;5011740;28;20125;-55
2023/08/07 00:28:05;;;;;;;6.50;1.73;;;;;;;12.79;100.00;100989.38;5010314;28;20085;-60
2023/08/07 00:30:33;;;;;;;5.68;1.65;;;;;;;12.80;100.00;100991.03;5012315;28;20049;-61
2023/08/07 00:33:03;;;;;;;3.60;1.20;;;;;;;12.73;100.00;100992.44;5009212;28;20516;-57
2023/08/07 00:35:32;;;;;;;4.47;1.35;;;;;;;12.68;100.00;100996.25;5009521;28;20041;-55
2023/08/07 00:38:00;;;;;;;5.57;1.30;;;;;;;12.72;100.00;100993.41;5009483;28;20129;-60
2023/08/07 00:40:28;;;;;;;5.22;1.40;;;;;;;12.69;100.00;101002.38;5009442;28;20057;-61
2023/08/07 00:42:56;;;;;;;4.80;1.40;;;;;;;12.68;100.00;100990.16;5012148;28;20459;-62
2023/08/07 00:45:25;;;;;;;7.13;1.85;;;;;;;12.69;100.00;101005.00;5011910;28;20042;-61
2023/08/07 00:47:56;;;;;;;7.35;1.45;;;;;;;12.67;100.00;101010.41;5009038;28;20076;-62
2023/08/07 00:50:26;;;;;;;8.02;1.50;;;;;;;12.69;100.00;101005.00;5009376;28;20065;-61
2023/08/07 00:53:12;;;;;;;5.40;1.50;;;;;;;12.68;100.00;101009.47;5012153;28;20038;-61
2023/08/07 00:55:42;;;;;;;4.07;1.40;;;;;;;12.68;100.00;101014.72;5011355;28;20038;-61
2023/08/07 00:58:11;;;;;;;7.07;2.00;;;;;;;12.63;100.00;101019.50;5007700;28;20057;-61
2023/08/07 01:00:41;;;;;;;6.32;1.40;;;;;;;12.62;100.00;101025.72;5009623;28;20054;-63
2023/08/07 01:03:13;;;;;;;5.95;1.60;;;;;;;12.61;100.00;101023.19;5010716;28;20058;-61
2023/08/07 01:05:43;;;;;;;7.28;1.50;;;;;;;12.62;100.00;101020.44;5008237;28;20050;-60
2023/08/07 01:08:12;;;;;;;5.85;1.75;;;;;;;12.57;100.00;101027.84;5011484;28;20120;-61
2023/08/07 01:10:54;;;;;;;5.88;1.55;;;;;;;12.63;100.00;101032.69;5007782;28;20057;-61
2023/08/07 01:13:29;;;;;;;7.20;1.77;;;;;;;12.60;100.00;101026.81;5008690;28;20042;-61
2023/08/07 01:16:03;;;;;;;7.50;2.10;;;;;;;12.59;100.00;101028.56;5011805;28;20401;-61
2023/08/07 01:18:32;;;;;;;7.53;2.08;;;;;;;12.58;100.00;101032.16;5011692;28;20073;-62
2023/08/07 01:21:04;;;;;;;6.97;1.75;;;;;;;12.56;100.00;101026.16;5012065;28;20076;-61
2023/08/07 01:23:33;;;;;;;6.85;2.50;;;;;;;12.56;100.00;101031.44;5009315;28;20131;-62
2023/08/07 01:26:03;;;;;;;9.73;2.38;;;;;;;12.61;100.00;101024.06;5008844;28;20054;-61
2023/08/07 01:28:37;;;;;;;8.88;2.10;;;;;;;12.58;100.00;101032.16;5008332;28;20045;-62
2023/08/07 01:31:13;;;;;;;11.25;2.33;;;;;;;12.57;100.00;101033.13;5008784;28;20113;-62
2023/08/07 01:34:13;;;;;;;12.13;2.10;;;;;;;12.57;100.00;101042.81;5008241;28;20128;-62
2023/08/07 01:36:46;;;;;;;8.18;2.38;;;;;;;12.59;100.00;101043.56;5011497;28;20042;-62
2023/08/07 01:39:18;;;;;;;11.00;2.20;;;;;;;12.55;100.00;101040.28;5012198;28;20551;-55
2023/08/07 01:41:47;;;;;;;11.10;2.50;;;;;;;12.63;100.00;101040.59;5011189;28;20046;-58
2023/08/07 01:44:16;;;;;;;9.80;2.20;;;;;;;12.63;100.00;101043.22;5008907;28;20128;-62
2023/08/07 01:46:44;;;;;;;12.85;2.67;;;;;;;12.71;100.00;101041.84;5008825;28;20057;-62
2023/08/07 01:49:12;;;;;;;15.43;3.08;;;;;;;12.60;100.00;101043.47;5011328;28;20429;-62
2023/08/07 01:51:41;;;;;;;11.63;3.15;;;;;;;12.62;100.00;101038.91;5011483;28;20115;-61
2023/08/07 01:54:09;;;;;;;14.93;3.70;;;;;;;12.59;100.00;101041.75;5006936;28;20528;-62
2023/08/07 01:56:38;;;;;;;10.02;2.92;;;;;;;12.57;100.00;101043.69;5008879;28;20084;-61
2023/08/07 01:59:07;;;;;;;9.90;2.47;;;;;;;12.58;100.00;101047.97;5011533;28;20531;-61
2023/08/07 02:01:35;;;;;;;10.38;2.22;;;;;;;12.60;100.00;101046.09;5008795;28;20050;-61
2023/08/07 02:04:04;;;;;;;14.93;3.22;;;;;;;12.68;100.00;101051.69;5008002;28;20073;-61
2023/08/07 02:06:32;;;;;;;11.48;2.67;;;;;;;12.60;100.00;101053.19;5008894;28;20066;-61
2023/08/07 02:09:00;;;;;;;18.30;3.35;;;;;;;12.62;100.00;101056.53;5014934;28;20688;-61
2023/08/07 02:11:29;;;;;;;18.30;3.58;;;;;;;12.62;100.00;101062.66;5015049;28;20501;-61
2023/08/07 02:14:01;;;;;;;11.75;3.10;;;;;;;12.63;100.00;101048.50;5013327;28;20058;-61
2023/08/07 02:16:30;;;;;;;13.80;2.92;;;;;;;12.62;100.00;101056.53;5011709;28;20136;-61
2023/08/07 02:18:58;;;;;;;9.88;2.30;;;;;;;12.68;100.00;101056.13;5013996;28;20124;-61
2023/08/07 02:21:26;;;;;;;16.05;4.03;;;;;;;12.63;100.00;101058.22;5015253;28;20042;-62
2023/08/07 02:23:54;;;;;;;16.85;3.28;;;;;;;12.65;100.00;101072.16;5012062;28;20058;-61
2023/08/07 02:26:23;;;;;;;16.17;3.30;;;;;;;12.65;100.00;101070.38;5010424;28;20073;-62
2023/08/07 02:28:51;;;;;;;14.60;3.33;;;;;;;12.72;100.00;101072.56;5011271;28;20096;-62
2023/08/07 02:31:21;;;;;;;17.20;3.78;;;;;;;12.69;100.00;101076.25;5012156;28;20133;-55
2023/08/07 02:33:49;;;;;;;13.63;3.35;;;;;;;12.69;100.00;101078.91;5014066;28;20049;-54
2023/08/07 02:36:17;;;;;;;12.75;3.13;;;;;;;12.70;100.00;101080.59;5012122;28;20046;-55
2023/08/07 02:38:46;;;;;;;13.52;3.25;;;;;;;12.72;100.00;101083.13;5009437;28;20744;-55
2023/08/07 02:41:17;;;;;;;12.65;3.15;;;;;;;12.71;100.00;101087.56;5012605;28;20460;-56
2023/08/07 02:43:45;;;;;;;13.82;3.10;;;;;;;12.68;100.00;101088.63;5014384;28;20053;-55
2023/08/07 02:46:13;;;;;;;14.93;3.90;;;;;;;12.70;100.00;101088.50;5014899;28;20124;-54
2023/08/07 02:48:44;;;;;;;15.68;3.58;;;;;;;12.67;100.00;101086.91;5011878;28;20387;-55
2023/08/07 02:51:12;;;;;;;14.38;3.63;;;;;;;12.67;100.00;101081.66;5013458;28;20145;-56
2023/08/07 02:53:41;;;;;;;12.95;3.70;;;;;;;12.70;100.00;101077.13;5015118;28;20121;-55
2023/08/07 02:56:09;;;;;;;11.95;3.33;;;;;;;12.68;100.00;101072.78;5015324;28;20104;-54
2023/08/07 02:58:37;;;;;;;11.27;4.30;;;;;;;12.73;100.00;101072.44;5012090;28;20053;-56
2023/08/07 03:01:06;;;;;;;10.65;3.05;;;;;;;12.77;100.00;101073.91;5012410;28;20046;-55
2023/08/07 03:03:35;;;;;;;12.30;3.55;;;;;;;12.71;100.00;101070.88;5013706;28;20394;-55
2023/08/07 03:06:05;;;;;;;13.85;3.50;;;;;;;12.73;100.00;101064.53;5014860;28;20046;-55
2023/08/07 03:08:33;;;;;;;13.68;3.72;;;;;;;12.77;100.00;101065.16;5014741;28;20046;-55
2023/08/07 03:11:01;;;;;;;14.10;3.75;;;;;;;12.73;100.00;101061.06;5015032;28;20042;-54
2023/08/07 03:13:30;;;;;;;14.60;3.13;;;;;;;12.64;100.00;101059.94;5011697;28;20042;-55
2023/08/07 03:16:01;;;;;;;11.95;3.38;;;;;;;12.70;100.00;101064.75;5012133;28;20362;-55
2023/08/07 03:18:30;;;;;;;11.07;3.75;;;;;;;12.71;100.00;101060.31;5014092;28;20125;-53
2023/08/07 03:20:58;;;;;;;9.80;3.10;;;;;;;12.70;100.00;101066.56;5013031;28;20092;-56
2023/08/07 03:23:29;;;;;;;13.38;3.20;;;;;;;12.63;100.00;101066.16;5009688;28;20409;-55
2023/08/07 03:26:04;;;;;;;14.20;3.83;;;;;;;12.65;100.00;101065.09;5011306;28;20379;-55
2023/08/07 03:28:46;;;;;;;10.48;3.22;;;;;;;12.66;100.00;101058.84;5011218;28;20056;-62
2023/08/07 03:31:15;;;;;;;12.32;2.97;;;;;;;12.70;100.00;101058.66;5010560;28;20108;-62
2023/08/07 03:33:43;;;;;;;11.63;3.10;;;;;;;12.59;100.00;101049.69;5009677;28;20386;-62
2023/08/07 03:36:12;;;;;;;11.80;2.78;;;;;;;12.63;100.00;101052.97;5013663;28;20527;-55
2023/08/07 03:38:42;;;;;;;10.70;3.35;;;;;;;12.63;100.00;101048.50;5013713;28;20041;-56
2023/08/07 03:41:10;;;;;;;7.38;2.50;;;;;;;12.64;100.00;101052.84;5012940;28;20115;-55
2023/08/07 03:43:38;;;;;;;10.88;2.97;;;;;;;12.60;100.00;101053.19;5012493;28;20057;-55
2023/08/07 03:46:06;;;;;;;13.18;3.00;;;;;;;12.62;100.00;101041.53;5011648;28;20038;-55
2023/08/07 03:48:35;;;;;;;13.93;3.35;;;;;;;12.60;100.00;101043.47;5013289;28;20116;-55
2023/08/07 03:51:04;;;;;;;10.32;3.25;;;;;;;12.61;100.00;101050.44;5014054;28;20215;-55
2023/08/07 03:53:32;;;;;;;11.70;3.00;;;;;;;12.67;100.00;101044.69;5013662;28;20054;-55
2023/08/07 03:56:02;;;;;;;8.90;2.67;;;;;;;12.67;100.00;101035.97;5013669;28;20096;-54
2023/08/07 03:58:30;;;;;;;11.18;3.00;;;;;;;12.61;100.00;101039.88;5013591;28;20134;-55
2023/08/07 04:00:59;;;;;;;13.02;3.30;;;;;;;12.62;100.00;101041.53;5011151;28;20052;-55
2023/08/07 04:03:27;;;;;;;11.45;3.22;;;;;;;12.57;100.00;101041.03;5010299;28;20599;-54
2023/08/07 04:05:56;;;;;;;11.18;2.97;;;;;;;12.61;100.00;101029.31;5011237;28;20473;-55
2023/08/07 04:08:27;;;;;;;12.23;2.58;;;;;;;12.61;100.00;101026.69;5011465;28;20092;-56
2023/08/07 04:11:00;;;;;;;9.93;2.72;;;;;;;12.57;100.00;101021.72;5009040;28;20042;-55
2023/08/07 04:13:30;;;;;;;13.05;3.10;;;;;;;12.59;100.00;101023.28;5012698;28;20103;-55
2023/08/07 04:16:00;;;;;;;9.20;2.90;;;;;;;12.62;100.00;101031.00;5010258;28;20033;-55
2023/08/07 04:18:29;;;;;;;8.40;2.53;;;;;;;12.56;100.00;101034.06;5010860;28;20041;-54
2023/08/07 04:20:57;;;;;;;11.55;2.90;;;;;;;12.60;100.00;101038.19;5011725;28;20493;-55
2023/08/07 04:23:26;;;;;;;8.73;2.60;;;;;;;12.60;100.00;101042.63;5009531;28;20058;-56
2023/08/07 04:25:55;;;;;;;15.55;3.30;;;;;;;12.55;100.00;101039.47;5009720;28;20096;-55
2023/08/07 04:28:23;;;;;;;7.60;2.80;;;;;;;12.56;100.00;101047.28;5010667;28;20049;-56
2023/08/07 04:30:53;;;;;;;10.48;2.55;;;;;;;12.59;100.00;101041.75;5008288;28;20053;-56
2023/08/07 04:33:22;;;;;;;10.77;2.20;;;;;;;12.60;100.00;101054.00;5009897;28;20053;-55
2023/08/07 04:35:50;;;;;;;10.65;2.90;;;;;;;12.63;100.00;101045.88;5010268;28;20054;-56
2023/08/07 04:38:19;;;;;;;8.63;3.20;;;;;;;12.56;100.00;101057.81;5012557;28;20100;-55
2023/08/07 04:40:48;;;;;;;12.07;3.08;;;;;;;12.60;100.00;101059.28;5012742;28;20062;-55
2023/08/07 04:43:17;;;;;;;8.48;2.58;;;;;;;12.61;100.00;101066.25;5013010;28;20050;-62
2023/08/07 04:45:45;;;;;;;9.10;2.40;;;;;;;12.59;100.00;101064.69;5012495;28;20096;-55
2023/08/07 04:48:15;;;;;;;7.82;2.60;;;;;;;12.62;100.00;101060.00;5012269;28;20570;-55
2023/08/07 04:50:44;;;;;;;7.65;2.30;;;;;;;12.67;100.00;101063.19;5012484;28;20557;-62
2023/08/07 04:53:13;;;;;;;9.48;2.65;;;;;;;12.68;100.00;101066.69;5013191;28;20061;-56
2023/08/07 04:55:41;;;;;;;6.75;2.25;;;;;;;12.65;100.00;101065.09;5012430;28;20073;-56
2023/08/07 04:58:09;;;;;;;11.93;2.88;;;;;;;12.64;100.00;101081.88;5010162;28;20050;-54
2023/08/07 05:00:40;;;;;;;5.82;2.20;;;;;;;12.69;100.00;101070.97;5009705;28;20460;-55
2023/08/07 05:03:08;;;;;;;10.30;2.83;;;;;;;12.70;100.00;101075.31;5010173;28;20046;-56
2023/08/07 05:05:38;;;;;;;10.13;2.70;;;;;;;12.68;100.00;101080.69;5009811;28;20517;-56
2023/08/07 05:08:07;;;;;;;9.32;2.40;;;;;;;12.69;100.00;101081.53;5010479;28;20405;-55
2023/08/07 05:10:35;;;;;;;8.18;2.42;;;;;;;12.70;100.00;101085.03;5007108;28;20137;-62
2023/08/07 05:13:03;;;;;;;11.00;3.10;;;;;;;12.67;100.00;101081.66;5008923;28;20053;-62
2023/08/07 05:15:31;;;;;;;12.60;3.15;;;;;;;12.70;100.00;101079.75;5009671;28;20474;-62
2023/08/07 05:18:00;;;;;;;11.50;2.63;;;;;;;12.68;100.00;101072.78;5008499;28;20052;-63
2023/08/07 05:20:28;;;;;;;8.30;3.15;;;;;;;12.74;100.00;101087.34;5008292;28;20557;-63
2023/08/07 05:22:58;;;;;;;10.73;3.20;;;;;;;12.80;100.00;101088.69;5007993;28;20046;-63
2023/08/07 05:25:27;;;;;;;9.77;3.28;;;;;;;12.77;100.00;101091.56;5007464;28;20552;-62
2023/08/07 05:27:55;;;;;;;10.82;3.05;;;;;;;12.81;100.00;101096.50;5011489;28;20042;-62
2023/08/07 05:30:23;;;;;;;11.63;3.70;;;;;;;12.81;100.00;101108.88;5008844;28;20501;-61
2023/08/07 05:32:52;;;;;;;11.15;3.22;;;;;;;12.83;100.00;101104.34;5008381;28;20042;-62
2023/08/07 05:35:20;;;;;;;16.02;3.85;;;;;;;12.85;100.00;101107.69;5008247;28;20078;-55
2023/08/07 05:37:48;;;;;;;13.80;3.30;;;;;;;12.85;100.00;101112.97;5009877;28;20413;-55
2023/08/07 05:40:18;;;;;;;10.40;3.83;;;;;;;12.84;100.00;101120.06;5011333;28;20046;-55
2023/08/07 05:42:46;;;;;;;10.25;3.58;;;;;;;12.91;100.00;101124.88;5016213;28;20133;-55
2023/08/07 05:45:14;;;;;;;13.48;3.97;;;;;;;12.90;100.00;101121.41;5016123;28;20057;-56
2023/08/07 05:47:43;;;;;;;15.88;3.45;;;;;;;12.86;100.00;101119.94;5016172;28;20065;-55
2023/08/07 05:50:11;;;;;;;12.00;4.03;;;;;;;12.90;100.00;101129.34;5015956;28;20092;-56
2023/08/07 05:52:40;;;;;;;13.95;4.20;;;;;;;12.92;100.00;101121.31;5013493;28;20104;-56
2023/08/07 05:55:09;;;;;;;15.52;5.05;;;;;;;12.93;100.00;101123.00;5010981;28;20470;-56
2023/08/07 05:57:38;;;;;;;16.00;4.18;;;;;;;12.96;100.00;101131.53;5012329;28;20048;-56
2023/08/07 06:00:13;;;;;;;16.42;3.88;;;;;;;13.00;100.00;101135.63;5012462;28;20131;-55
2023/08/07 06:02:42;;;;;;;16.05;3.70;;;;;;;13.02;100.00;101133.75;5012352;28;20073;-57
2023/08/07 06:05:14;;;;;;;15.57;3.70;;;;;;;13.06;100.00;101137.03;5012138;28;20057;-56
2023/08/07 06:07:43;;;;;;;11.52;3.60;;;;;;;13.11;100.00;101141.97;5014648;28;20045;-56
2023/08/07 06:10:11;;;;;;;14.60;4.05;;;;;;;13.11;100.00;101140.16;5015196;28;20096;-56
2023/08/07 06:12:41;;;;;;;9.65;3.67;;;;;;;13.17;100.00;101146.78;5011427;28;20100;-56
2023/08/07 06:15:10;;;;;;;15.45;3.33;;;;;;;13.23;100.00;101149.00;5010284;28;20092;-55
2023/08/07 06:17:40;;;;;;;10.77;3.25;;;;;;;13.22;100.00;101149.97;5010968;28;20050;-56
2023/08/07 06:20:11;;;;;;;15.73;3.80;;;;;;;13.25;100.00;101159.47;5011882;28;20052;-55
2023/08/07 06:22:40;;;;;;;10.30;3.17;;;;;;;13.29;100.00;101161.78;5014496;28;20077;-62
2023/08/07 06:25:09;;;;;;;10.55;3.35;;;;;;;13.31;100.00;101159.88;5010186;28;20073;-56
2023/08/07 06:27:37;;;;;;;9.93;3.17;;;;;;;13.33;100.00;101167.69;5011927;28;20060;-55
2023/08/07 06:30:08;;;;;;;12.13;3.22;;;;;;;13.35;100.00;101169.28;5010699;28;20087;-56
2023/08/07 06:32:37;;;;;;;13.18;3.30;;;;;;;13.41;100.00;101175.94;5013450;28;20061;-63
2023/08/07 06:35:06;;;;;;;11.88;3.47;;;;;;;13.44;100.00;101183.66;5014959;28;20068;-62
2023/08/07 06:37:35;;;;;;;13.88;3.50;;;;;;;13.41;100.00;101172.47;5011039;28;20156;-56
2023/08/07 06:40:04;;;;;;;17.10;4.38;;;;;;;13.54;100.00;101178.56;5009187;28;20084;-63
2023/08/07 06:42:33;;;;;;;12.50;3.45;;;;;;;13.55;100.00;101182.84;5012284;28;20109;-55
2023/08/07 06:45:01;;;;;;;15.23;4.20;;;;;;;13.57;100.00;101180.13;5013272;28;20045;-63
2023/08/07 06:47:31;;;;;;;12.70;4.00;;;;;;;13.65;100.00;101189.16;5014484;28;20100;-57
2023/08/07 06:49:59;;;;;;;15.20;3.72;;;;;;;13.71;100.00;101193.16;5010907;28;20052;-55
2023/08/07 06:52:28;;;;;;;13.02;4.03;;;;;;;13.71;100.00;101192.34;5009911;28;20065;-55
2023/08/07 06:54:56;;;;;;;10.00;3.75;;;;;;;13.77;100.00;101197.16;5008844;28;20081;-55
2023/08/07 06:57:24;;;;;;;14.45;3.78;;;;;;;13.85;100.00;101200.06;5010760;28;20497;-55
2023/08/07 06:59:53;;;;;;;10.75;4.03;;;;;;;13.91;100.00;101202.28;5009420;28;20409;-54
2023/08/07 07:02:21;;;;;;;14.50;4.18;;;;;;;14.00;100.00;101201.63;5013588;28;20489;-55
2023/08/07 07:04:51;;;;;;;15.48;4.20;;;;;;;14.05;100.00;101206.56;5010336;28;20054;-55
2023/08/07 07:07:19;;;;;;;14.32;3.67;;;;;;;14.10;100.00;101207.06;5010982;28;20044;-56
2023/08/07 07:09:47;;;;;;;12.15;3.58;;;;;;;14.10;100.00;101204.41;5009326;28;20576;-56
2023/08/07 07:12:15;;;;;;;12.25;3.25;;;;;;;14.15;100.00;101217.28;5011007;28;20058;-56
2023/08/07 07:14:44;;;;;;;13.82;3.38;;;;;;;14.17;100.00;101210.91;5009997;28;20053;-55
2023/08/07 07:17:12;;;;;;;17.10;3.80;;;;;;;14.24;100.00;101213.97;5009666;28;20921;-56
2023/08/07 07:19:40;;;;;;;17.58;4.07;;;;;;;14.28;100.00;101212.78;5010958;28;20583;-56
2023/08/07 07:22:10;;;;;;;14.35;3.58;;;;;;;14.29;100.00;101227.69;5011243;28;20084;-55
2023/08/07 07:24:39;;;;;;;9.32;3.65;;;;;;;14.43;100.00;101217.88;5008784;28;20045;-64
2023/08/07 07:27:07;;;;;;;13.43;3.45;;;;;;;14.57;100.00;101227.41;5010853;28;20050;-55
2023/08/07 07:29:36;;;;;;;13.05;3.30;;;;;;;14.65;100.00;101241.75;5009803;28;20149;-64
2023/08/07 07:32:04;;;;;;;13.15;3.83;;;;;;;14.60;100.00;101235.97;5011753;28;20057;-64
2023/08/07 07:34:33;;;;;;;12.27;3.45;;;;;;;14.71;100.00;101240.44;5010037;28;20405;-64
2023/08/07 07:37:01;;;;;;;10.73;2.97;;;;;;;14.84;100.00;101245.66;5012050;28;20489;-64
2023/08/07 07:39:31;;;;;;;13.45;3.25;;;;;;;14.91;100.00;101252.16;5010288;28;20777;-64
2023/08/07 07:41:59;;;;;;;11.40;3.13;;;;;;;14.90;100.00;101253.13;5009088;28;20085;-64
2023/08/07 07:44:28;;;;;;;12.82;3.13;;;;;;;14.87;100.00;101270.13;5012722;28;20515;-64
2023/08/07 07:46:57;;;;;;;13.00;3.55;;;;;;;14.83;100.00;101279.25;5010575;28;20183;-64
2023/08/07 07:49:26;;;;;;;17.88;3.92;;;;;;;14.75;100.00;101263.09;5010214;28;20498;-55
2023/08/07 07:51:54;;;;;;;12.45;3.17;;;;;;;14.92;100.00;101271.56;5010046;28;20045;-55
2023/08/07 07:54:22;;;;;;;13.65;3.47;;;;;;;15.24;100.00;101268.22;5008541;28;20044;-55
2023/08/07 07:56:52;;;;;;;11.02;3.78;;;;;;;15.55;100.00;101266.63;5012615;28;20624;-55
2023/08/07 07:59:20;;;;;;;12.07;3.55;;;;;;;15.66;100.00;101263.97;5009949;28;20061;-55
2023/08/07 08:01:48;;;;;;;13.77;4.00;;;;;;;15.70;100.00;101265.41;5009742;28;20085;-55
2023/08/07 08:04:17;;;;;;;11.02;3.03;;;;;;;15.72;100.00;101268.78;5008138;28;20050;-55
2023/08/07 08:06:48;;;;;;;15.48;3.58;;;;;;;15.68;100.00;101288.56;5012193;28;20068;-55
2023/08/07 08:09:16;;;;;;;13.48;3.10;;;;;;;15.49;100.00;101278.56;5008988;28;20105;-64
2023/08/07 08:11:44;;;;;;;11.85;3.40;;;;;;;15.43;100.00;101276.38;5009938;28;20049;-55
2023/08/07 08:14:14;;;;;;;12.73;2.88;;;;;;;15.34;100.00;101298.34;5013061;28;20049;-55
2023/08/07 08:16:42;;;;;;;13.82;3.45;;;;;;;15.24;100.00;101310.59;5013260;28;20050;-64
2023/08/07 08:19:11;;;;;;;10.68;2.90;;;;;;;15.01;100.00;101305.25;5013028;28;20061;-64
2023/08/07 08:21:39;;;;;;;12.05;2.95;;;;;;;15.01;100.00;101302.63;5009411;28;20112;-62
2023/08/07 08:24:09;;;;;;;14.60;3.53;;;;;;;14.96;100.00;101312.75;5008698;28;20053;-54
2023/08/07 08:26:40;;;;;;;9.57;3.03;;;;;;;15.23;100.00;101308.91;5011589;28;20073;-55
2023/08/07 08:29:09;;;;;;;11.90;3.22;;;;;;;15.36;100.00;101326.38;5009756;28;20429;-54
2023/08/07 08:31:38;;;;;;;10.10;3.33;;;;;;;15.71;100.00;101316.63;5011451;28;20034;-55
2023/08/07 08:34:07;;;;;;;14.57;3.55;;;;;;;15.94;100.00;101319.28;5012616;28;20128;-55
2023/08/07 08:36:35;;;;;;;13.55;3.03;;;;;;;16.02;100.00;101324.78;5012535;28;20049;-55
2023/08/07 08:39:03;;;;;;;10.90;2.67;;;;;;;16.19;100.00;101320.78;5009843;28;20396;-63
2023/08/07 08:41:33;;;;;;;11.18;2.90;;;;;;;16.30;100.00;101326.06;5009653;28;20050;-64
2023/08/07 08:44:03;;;;;;;9.63;2.65;;;;;;;16.55;100.00;101330.19;5010322;28;20062;-64
2023/08/07 08:46:32;;;;;;;11.27;3.05;;;;;;;16.56;100.00;101331.03;5009913;28;20173;-55
2023/08/07 08:49:04;;;;;;;11.93;3.30;;;;;;;16.81;100.00;101336.94;5009073;28;20490;-55
2023/08/07 08:51:33;;;;;;;10.07;2.60;;;;;;;16.77;100.00;101339.03;5008866;28;20088;-56
2023/08/07 08:54:03;;;;;;;11.25;3.10;;;;;;;16.76;100.00;101340.00;5007780;28;20044;-56
2023/08/07 08:56:32;;;;;;;9.35;2.35;;;;;;;16.72;100.00;101350.03;5010653;28;20397;-55
2023/08/07 08:59:01;;;;;;;12.45;2.92;;;;;;;16.48;100.00;101352.91;5009207;28;20046;-54
2023/08/07 09:01:31;;;;;;;7.93;2.47;;;;;;;16.14;100.00;101349.50;5009067;28;20544;-54
2023/08/07 09:04:00;;;;;;;9.18;2.63;;;;;;;15.88;100.00;101353.31;5011211;28;20050;-55
2023/08/07 09:06:32;;;;;;;13.60;3.25;;;;;;;15.97;100.00;101351.72;5008577;28;20050;-54
2023/08/07 09:09:02;;;;;;;9.77;2.67;;;;;;;15.66;100.00;101364.69;5010582;28;20034;-62
2023/08/07 09:11:33;;;;;;;9.90;2.75;;;;;;;15.98;100.00;101358.72;5011967;28;20046;-54
2023/08/07 09:14:04;;;;;;;11.18;2.75;;;;;;;16.05;100.00;101359.88;5011162;28;20505;-56
2023/08/07 09:16:33;;;;;;;10.63;3.10;;;;;;;16.10;100.00;101358.69;5011142;28;20081;-64
2023/08/07 09:19:02;;;;;;;10.45;3.60;;;;;;;16.44;100.00;101366.56;5011413;28;20057;-63
2023/08/07 09:21:34;;;;;;;13.15;3.83;;;;;;;16.39;100.00;101372.25;5009025;28;20056;-63
2023/08/07 09:24:03;;;;;;;13.48;3.92;;;;;;;16.63;100.00;101363.22;5007745;28;20057;-63
2023/08/07 09:26:33;;;;;;;12.98;3.33;;;;;;;16.84;100.00;101368.59;5009391;28;20560;-64
2023/08/07 09:29:03;;;;;;;12.82;3.28;;;;;;;16.90;100.00;101362.78;5010469;28;20057;-53
2023/08/07 09:31:32;;;;;;;12.57;3.47;;;;;;;17.05;100.00;101366.78;5007010;28;20149;-55
2023/08/07 09:34:03;;;;;;;10.60;3.10;;;;;;;17.30;100.00;101364.72;5008291;28;20056;-54
2023/08/07 09:36:32;;;;;;;14.68;3.25;;;;;;;17.48;100.00;101362.28;5008066;28;20536;-55
2023/08/07 09:39:04;;;;;;;11.68;3.22;;;;;;;17.67;100.00;101364.19;5006880;28;20042;-56
2023/08/07 09:41:32;;;;;;;12.88;3.28;;;;;;;17.74;100.00;101375.97;5008928;28;20050;-64
2023/08/07 09:44:07;;;;;;;12.23;2.97;;;;;;;17.42;100.00;101375.28;5009155;28;20050;-55
2023/08/07 09:46:42;;;;;;;14.65;3.15;;;;;;;17.18;100.00;101379.06;5008039;28;20149;-64
2023/08/07 09:49:11;;;;;;;11.98;2.70;;;;;;;17.25;100.00;101385.53;5008900;28;20054;-55
2023/08/07 09:51:44;;;;;;;11.07;2.92;;;;;;;17.28;100.00;101384.44;5008674;28;20049;-57
2023/08/07 09:54:14;;;;;;;14.10;2.78;;;;;;;17.34;100.00;101390.06;5011861;28;20053;-63
2023/08/07 09:56:42;;;;;;;8.27;2.40;;;;;;;17.81;100.00;101391.41;5029103;28;20136;-63
2023/08/07 09:59:11;;;;;;;10.73;2.55;;;;;;;17.78;100.00;101386.34;5030706;28;20056;-64
2023/08/07 10:01:39;;;;;;;7.35;2.53;;;;;;;17.86;100.00;101394.50;5029869;28;20080;-55
2023/08/07 10:04:10;;;;;;;11.57;3.22;;;;;;;18.11;100.00;101398.53;5030751;28;20058;-55
2023/08/07 10:06:39;;;;;;;8.00;2.45;;;;;;;18.47;100.00;101393.56;5029674;28;20046;-63
2023/08/07 10:09:08;;;;;;;9.75;2.45;;;;;;;18.77;100.00;101394.41;5029023;28;20132;-64
2023/08/07 10:11:40;;;;;;;9.68;2.67;;;;;;;19.11;100.00;101402.00;5031948;28;20425;-64
2023/08/07 10:14:09;;;;;;;7.63;2.20;;;;;;;19.13;100.00;101384.06;5031567;28;20049;-63
2023/08/07 10:16:41;;;;;;;9.10;2.20;;;;;;;19.10;100.00;101389.66;5029747;28;20049;-63
2023/08/07 10:19:10;;;;;;;9.02;2.42;;;;;;;19.09;100.00;101401.31;5029913;28;20060;-63
2023/08/07 10:21:40;;;;;;;7.47;2.15;;;;;;;19.03;100.00;101410.72;5029784;28;20045;-64
2023/08/07 10:24:10;;;;;;;10.05;2.47;;;;;;;18.99;100.00;101401.34;5030013;28;20057;-54
2023/08/07 10:26:43;;;;;;;9.88;2.03;;;;;;;18.55;100.00;101406.19;5028129;28;20060;-56
2023/08/07 10:29:14;;;;;;;;;;;;;;;18.51;100.00;101412.78;5031857;28;20057;-55
2023/08/07 10:31:44;;;;;;;11.85;2.55;;;;;;;18.47;100.00;101417.53;5030955;28;19925;-56
2023/08/07 10:34:12;;;;;;;13.45;2.83;;;;;;;18.97;100.00;101418.44;5031028;28;20508;-56
2023/08/07 10:36:41;;;;;;;9.60;2.63;;;;;;;19.07;100.00;101417.47;5033265;28;20037;-54
2023/08/07 10:39:12;;;;;;;9.07;2.45;;;;;;;19.06;100.00;101425.56;5035365;28;20065;-63
2023/08/07 10:41:45;;;;;;;9.00;2.60;;;;;;;19.06;100.00;101415.78;5034787;28;20053;-63
2023/08/07 10:44:20;;;;;;;11.30;2.42;;;;;;;18.94;100.00;101429.38;5035639;28;20069;-63
2023/08/07 10:46:50;;;;;;;11.07;2.75;;;;;;;19.09;100.00;101425.31;5034053;28;20064;-64
2023/08/07 10:49:36;;;;;;;10.63;2.35;;;;;;;19.26;100.00;101431.72;5035972;28;20038;-63
2023/08/07 10:52:13;;;;;;;13.50;2.53;;;;;;;19.34;100.00;101433.69;5035750;28;20388;-64
2023/08/07 10:54:45;;;;;;;9.77;2.10;;;;;;;18.74;100.00;101440.00;5032518;28;20049;-55
2023/08/07 10:57:16;;;;;;;;;;;;;;;18.69;100.00;101443.09;5035017;28;20408;-64
2023/08/07 10:59:51;;;;;;;9.27;2.83;;;;;;;19.24;100.00;101453.19;5033084;28;19928;-56
2023/08/07 11:02:27;;;;;;;7.85;2.60;;;;;;;19.29;100.00;101439.44;5033581;28;20136;-56
2023/08/07 11:04:56;;;;;;;8.95;2.20;;;;;;;19.04;100.00;101444.38;5031306;28;20508;-56
2023/08/07 11:07:26;;;;;;;10.35;2.50;;;;;;;19.14;100.00;101440.88;5032429;28;20377;-64
2023/08/07 11:09:55;;;;;;;9.98;2.50;;;;;;;19.51;100.00;101440.97;5035269;28;20051;-63
2023/08/07 11:12:27;;;;;;;10.43;2.55;;;;;;;19.75;100.00;101444.94;5034331;28;20111;-63
2023/08/07 11:14:57;;;;;;;8.97;2.07;;;;;;;19.87;100.00;101442.97;5033278;28;20500;-55
2023/08/07 11:17:25;;;;;;;7.07;1.92;;;;;;;20.17;100.00;101441.03;5034972;28;20053;-64
2023/08/07 11:19:54;;;;;;;7.97;2.00;;;;;;;20.57;100.00;101437.97;5035238;28;20428;-64
2023/08/07 11:22:23;;;;;;;7.50;2.08;;;;;;;20.38;100.00;101438.94;5034737;28;20122;-64